Terminal Aerodrome Forecast
Issued by NWS

Home | Current Version | Previous Version | Text Only | Print | Product List | Glossary Off
Versions: 1 2 3 4 5 6 7 8 9 10 11 12 13 14 15

000
FTUS42 KMHX 271600 AAC
TAFPGV
TAF AMD
KPGV 271631Z 2717/2812 26008KT P6SM BKN070 OVC110
      TEMPO 2717/2718 VRB20G40KT 1SM +TSRA BKN025CB OVC040
     FM271900 24010G15KT P6SM VCTS BKN040CB BKN250
     FM272300 23008KT P6SM BKN040
     FM280100 20010KT P6SM SCT100
      AMD LTD TO CLD VIS AND WIND=

USA.gov is the U.S. government's official web portal to all federal, state and local government web resources and services.